Terminal Aerodrome Forecast
Issued by NWS

Home | Current Version | Previous Version | Text Only | Print | Product List | Glossary On
Versions: 1 2 3 4 5 6 7 8 9 10 11 12 13 14 15 16 17 18 19
000
FTUS41 KPBZ 230500
TAFBVI
TAF
KBVI 230528Z 2306/2406 22004KT P6SM SKC
      TEMPO 2309/2312 4SM BR
     FM231600 25013KT 5SM -SHRA VCTS BKN035CB
     FM232200 31012KT P6SM BKN035
     FM240300 33006KT P6SM SCT035
      AMD NOT SKED=

USA.gov is the U.S. government's official web portal to all federal, state and local government web resources and services.